首页
METAR-TAF:

METAR-TAF

机场 :

马六甲国际机场

马六甲, 马来西亚

纬度: 02-16N, 经度: 102-15E, 海拔: 11米

当前天气观测

该预报发布于1小时和5分钟前的01:00 UTC
风速5节,风向东北,在北转西北之间变化
温度 27°C
湿度 79%
气压 1012 hPa
能见度10公里或以上
少量云层高于3000英尺

METAR: WMKM 260100Z 05005KT 340V080 9999 FEW030 27/23 Q1012

时间: 10:05 (02:05 UTC)

预报

该预报发布于3小时和5分钟前的23:00 UTC
预报有效从26日的 00点(UTC)到 27日的 00点(UTC)
风速7节,风向东北
能见度10公里或以上
少量云层高于2000英尺

TAF: WMKM 252300Z 2600/2700 05007KT 9999 FEW020

超过4000个机场的气象观测和天气预报(METAR&TAF报告)。

可查询的气象台以黄色和红色小点在地图上表示。

将鼠标移到小点上方,可查看气象台名称。

然后点击查看天气观测和预报。

如需切换地图:点击带黑十字的绿色按钮放大地图;点击带横线的绿色按钮缩小地图;或者点击绿色箭头查看邻近地区的地图。


METAR-TAF: